sensor_id;sensor_type;location;lat;lon;timestamp;pressure;altitude;pressure_sealevel;temperature;humidity
64243;BME280;50573;51.512;5.386;2023-04-28T00:05:45;77441.41;;;9.37;79.45
64243;BME280;50573;51.512;5.386;2023-04-28T00:15:51;77430.00;;;9.27;81.13
64243;BME280;50573;51.512;5.386;2023-04-28T00:25:55;77402.63;;;9.03;88.71
64243;BME280;50573;51.512;5.386;2023-04-28T00:36:00;77382.53;;;8.83;89.28
64243;BME280;50573;51.512;5.386;2023-04-28T00:46:03;77336.81;;;8.50;98.09
64243;BME280;50573;51.512;5.386;2023-04-28T00:56:08;77316.34;;;8.31;100.00
64243;BME280;50573;51.512;5.386;2023-04-28T01:06:12;77324.53;;;8.24;100.00
64243;BME280;50573;51.512;5.386;2023-04-28T01:16:17;77338.63;;;8.34;100.00
64243;BME280;50573;51.512;5.386;2023-04-28T01:26:21;77314.31;;;8.25;100.00
64243;BME280;50573;51.512;5.386;2023-04-28T01:36:25;77322.97;;;8.25;99.95
64243;BME280;50573;51.512;5.386;2023-04-28T01:46:31;77315.28;;;8.23;100.00
64243;BME280;50573;51.512;5.386;2023-04-28T01:56:34;77322.22;;;8.22;100.00
64243;BME280;50573;51.512;5.386;2023-04-28T02:06:39;77318.88;;;8.29;100.00
64243;BME280;50573;51.512;5.386;2023-04-28T02:16:42;77332.34;;;8.29;100.00
64243;BME280;50573;51.512;5.386;2023-04-28T02:26:47;77337.22;;;8.38;100.00
64243;BME280;50573;51.512;5.386;2023-04-28T02:36:51;77342.44;;;8.35;100.00
64243;BME280;50573;51.512;5.386;2023-04-28T02:46:56;77331.56;;;8.43;100.00
64243;BME280;50573;51.512;5.386;2023-04-28T02:57:00;77363.16;;;8.66;100.00
64243;BME280;50573;51.512;5.386;2023-04-28T03:07:05;77357.03;;;8.63;100.00
64243;BME280;50573;51.512;5.386;2023-04-28T03:17:08;77379.22;;;8.73;100.00
64243;BME280;50573;51.512;5.386;2023-04-28T03:27:14;77389.91;;;8.80;100.00
64243;BME280;50573;51.512;5.386;2023-04-28T03:37:17;77395.38;;;8.99;100.00
64243;BME280;50573;51.512;5.386;2023-04-28T03:47:21;77406.59;;;8.97;100.00
64243;BME280;50573;51.512;5.386;2023-04-28T03:57:25;77429.66;;;9.12;100.00
64243;BME280;50573;51.512;5.386;2023-04-28T04:07:29;77424.25;;;9.12;100.00
64243;BME280;50573;51.512;5.386;2023-04-28T04:17:33;77409.06;;;9.11;100.00
64243;BME280;50573;51.512;5.386;2023-04-28T04:27:37;77427.72;;;9.25;100.00
64243;BME280;50573;51.512;5.386;2023-04-28T04:37:41;77443.66;;;9.39;100.00
64243;BME280;50573;51.512;5.386;2023-04-28T04:47:46;77456.22;;;9.50;100.00
64243;BME280;50573;51.512;5.386;2023-04-28T04:57:49;77464.91;;;9.60;100.00
64243;BME280;50573;51.512;5.386;2023-04-28T05:08:15;77494.44;;;9.83;100.00
64243;BME280;50573;51.512;5.386;2023-04-28T05:18:19;77507.53;;;9.86;100.00
64243;BME280;50573;51.512;5.386;2023-04-28T05:28:23;77538.91;;;10.13;100.00
64243;BME280;50573;51.512;5.386;2023-04-28T05:38:29;77567.44;;;10.38;100.00
64243;BME280;50573;51.512;5.386;2023-04-28T05:48:35;77565.03;;;10.53;100.00
64243;BME280;50573;51.512;5.386;2023-04-28T05:58:39;77598.41;;;10.77;100.00
64243;BME280;50573;51.512;5.386;2023-04-28T06:08:44;77629.63;;;11.02;100.00
64243;BME280;50573;51.512;5.386;2023-04-28T06:18:47;77661.88;;;11.36;100.00
64243;BME280;50573;51.512;5.386;2023-04-28T06:28:53;77694.28;;;11.62;100.00
64243;BME280;50573;51.512;5.386;2023-04-28T06:38:56;77748.41;;;11.97;100.00
64243;BME280;50573;51.512;5.386;2023-04-28T06:49:01;77732.13;;;11.97;100.00
64243;BME280;50573;51.512;5.386;2023-04-28T06:59:04;77756.97;;;12.05;100.00
64243;BME280;50573;51.512;5.386;2023-04-28T07:09:08;77753.94;;;12.09;100.00
64243;BME280;50573;51.512;5.386;2023-04-28T07:19:11;77795.38;;;12.50;100.00
64243;BME280;50573;51.512;5.386;2023-04-28T07:29:15;77805.91;;;12.65;100.00
64243;BME280;50573;51.512;5.386;2023-04-28T07:39:18;77848.34;;;12.85;100.00
64243;BME280;50573;51.512;5.386;2023-04-28T07:49:23;77781.94;;;12.43;100.00
64243;BME280;50573;51.512;5.386;2023-04-28T07:59:26;77830.50;;;12.77;100.00
64243;BME280;50573;51.512;5.386;2023-04-28T08:09:31;77826.78;;;12.78;100.00
64243;BME280;50573;51.512;5.386;2023-04-28T08:19:36;77813.50;;;12.64;100.00
64243;BME280;50573;51.512;5.386;2023-04-28T08:29:40;77852.06;;;13.03;100.00
64243;BME280;50573;51.512;5.386;2023-04-28T08:39:43;77877.22;;;13.25;100.00
64243;BME280;50573;51.512;5.386;2023-04-28T08:49:48;77908.06;;;13.52;100.00
64243;BME280;50573;51.512;5.386;2023-04-28T08:59:52;77947.09;;;13.79;100.00
64243;BME280;50573;51.512;5.386;2023-04-28T09:10:16;77963.81;;;13.86;100.00
64243;BME280;50573;51.512;5.386;2023-04-28T09:20:20;77974.66;;;14.06;100.00
64243;BME280;50573;51.512;5.386;2023-04-28T09:30:38;78011.41;;;14.40;100.00
64243;BME280;50573;51.512;5.386;2023-04-28T09:40:53;78025.53;;;14.60;100.00
64243;BME280;50573;51.512;5.386;2023-04-28T09:50:59;78032.56;;;14.59;100.00
64243;BME280;50573;51.512;5.386;2023-04-28T10:01:04;78009.13;;;14.38;100.00
64243;BME280;50573;51.512;5.386;2023-04-28T10:11:10;77999.41;;;14.30;100.00
64243;BME280;50573;51.512;5.386;2023-04-28T10:21:17;78037.41;;;14.68;100.00
64243;BME280;50573;51.512;5.386;2023-04-28T10:31:21;78063.31;;;14.83;100.00
64243;BME280;50573;51.512;5.386;2023-04-28T10:41:31;78089.50;;;15.04;100.00
64243;BME280;50573;51.512;5.386;2023-04-28T10:51:36;78130.53;;;15.47;100.00
64243;BME280;50573;51.512;5.386;2023-04-28T11:01:39;78162.56;;;15.75;100.00
64243;BME280;50573;51.512;5.386;2023-04-28T11:12:06;78210.75;;;16.20;100.00
64243;BME280;50573;51.512;5.386;2023-04-28T11:22:15;78257.44;;;16.56;100.00
64243;BME280;50573;51.512;5.386;2023-04-28T11:32:26;78240.72;;;16.29;100.00
64243;BME280;50573;51.512;5.386;2023-04-28T11:42:30;78225.38;;;16.28;100.00
64243;BME280;50573;51.512;5.386;2023-04-28T11:52:36;78198.91;;;16.02;100.00
64243;BME280;50573;51.512;5.386;2023-04-28T12:02:53;78174.44;;;15.83;100.00
64243;BME280;50573;51.512;5.386;2023-04-28T12:12:57;78162.56;;;15.75;100.00
64243;BME280;50573;51.512;5.386;2023-04-28T12:23:28;78152.72;;;15.64;100.00
64243;BME280;50573;51.512;5.386;2023-04-28T12:33:33;78101.75;;;15.19;100.00
64243;BME280;50573;51.512;5.386;2023-04-28T12:43:39;78086.31;;;15.06;100.00
64243;BME280;50573;51.512;5.386;2023-04-28T12:53:46;78057.59;;;14.78;100.00
64243;BME280;50573;51.512;5.386;2023-04-28T13:03:49;77997.81;;;14.31;100.00
64243;BME280;50573;51.512;5.386;2023-04-28T13:13:55;78008.41;;;14.35;100.00
64243;BME280;50573;51.512;5.386;2023-04-28T13:23:58;78116.78;;;15.35;100.00
64243;BME280;50573;51.512;5.386;2023-04-28T13:34:03;78150.84;;;15.60;100.00
64243;BME280;50573;51.512;5.386;2023-04-28T13:44:07;78201.91;;;16.07;99.40
64243;BME280;50573;51.512;5.386;2023-04-28T13:54:11;78211.31;;;16.20;94.83
64243;BME280;50573;51.512;5.386;2023-04-28T14:04:14;78240.81;;;16.41;94.73
64243;BME280;50573;51.512;5.386;2023-04-28T14:14:19;78205.78;;;16.08;98.55
64243;BME280;50573;51.512;5.386;2023-04-28T14:24:22;78152.94;;;15.69;100.00
64243;BME280;50573;51.512;5.386;2023-04-28T14:34:27;78094.47;;;15.15;100.00
64243;BME280;50573;51.512;5.386;2023-04-28T14:44:39;78089.75;;;15.09;100.00
64243;BME280;50573;51.512;5.386;2023-04-28T14:54:49;78085.88;;;15.08;100.00
64243;BME280;50573;51.512;5.386;2023-04-28T15:04:56;78124.09;;;15.39;100.00
64243;BME280;50573;51.512;5.386;2023-04-28T15:15:08;78153.41;;;15.67;100.00
64243;BME280;50573;51.512;5.386;2023-04-28T15:25:12;78203.63;;;16.09;100.00
64243;BME280;50573;51.512;5.386;2023-04-28T15:35:21;78155.44;;;15.64;100.00
64243;BME280;50573;51.512;5.386;2023-04-28T15:45:31;78159.13;;;15.72;100.00
64243;BME280;50573;51.512;5.386;2023-04-28T15:55:38;78209.03;;;16.18;100.00
64243;BME280;50573;51.512;5.386;2023-04-28T16:05:44;78240.38;;;16.43;100.00
64243;BME280;50573;51.512;5.386;2023-04-28T16:15:54;78198.22;;;15.99;100.00
64243;BME280;50573;51.512;5.386;2023-04-28T16:26:01;78161.13;;;15.69;100.00
64243;BME280;50573;51.512;5.386;2023-04-28T16:36:11;78170.56;;;15.82;100.00
64243;BME280;50573;51.512;5.386;2023-04-28T16:46:18;78184.72;;;15.92;100.00
64243;BME280;50573;51.512;5.386;2023-04-28T16:56:23;78149.13;;;15.59;100.00
64243;BME280;50573;51.512;5.386;2023-04-28T17:06:35;78103.63;;;15.23;100.00
64243;BME280;50573;51.512;5.386;2023-04-28T17:16:45;78105.78;;;15.23;100.00
64243;BME280;50573;51.512;5.386;2023-04-28T17:26:51;78082.44;;;15.05;100.00
64243;BME280;50573;51.512;5.386;2023-04-28T17:37:01;78054.56;;;14.83;100.00
64243;BME280;50573;51.512;5.386;2023-04-28T17:47:07;78017.25;;;14.48;100.00
64243;BME280;50573;51.512;5.386;2023-04-28T17:57:21;78011.53;;;14.43;100.00
64243;BME280;50573;51.512;5.386;2023-04-28T18:07:24;77988.38;;;14.18;100.00
64243;BME280;50573;51.512;5.386;2023-04-28T18:17:29;77982.09;;;14.03;100.00
64243;BME280;50573;51.512;5.386;2023-04-28T18:27:33;77968.50;;;14.03;100.00
64243;BME280;50573;51.512;5.386;2023-04-28T18:37:38;77960.50;;;13.96;100.00
64243;BME280;50573;51.512;5.386;2023-04-28T18:47:41;77966.66;;;13.99;100.00
64243;BME280;50573;51.512;5.386;2023-04-28T18:57:45;77946.66;;;13.81;100.00
64243;BME280;50573;51.512;5.386;2023-04-28T19:07:50;77929.50;;;13.66;100.00
64243;BME280;50573;51.512;5.386;2023-04-28T19:17:54;77917.50;;;13.55;100.00
64243;BME280;50573;51.512;5.386;2023-04-28T19:27:57;77896.91;;;13.37;100.00
64243;BME280;50573;51.512;5.386;2023-04-28T19:38:02;77886.50;;;13.26;100.00
64243;BME280;50573;51.512;5.386;2023-04-28T19:48:05;77861.50;;;13.06;100.00
64243;BME280;50573;51.512;5.386;2023-04-28T19:58:10;77848.63;;;13.00;100.00
64243;BME280;50573;51.512;5.386;2023-04-28T20:08:15;77833.78;;;12.87;100.00
64243;BME280;50573;51.512;5.386;2023-04-28T20:18:21;77828.91;;;12.78;100.00
64243;BME280;50573;51.512;5.386;2023-04-28T20:28:24;77807.22;;;12.58;100.00
64243;BME280;50573;51.512;5.386;2023-04-28T20:38:29;77809.22;;;12.65;100.00
64243;BME280;50573;51.512;5.386;2023-04-28T20:48:32;77795.06;;;12.55;100.00
64243;BME280;50573;51.512;5.386;2023-04-28T20:58:36;77782.94;;;12.42;100.00
64243;BME280;50573;51.512;5.386;2023-04-28T21:08:43;77790.66;;;12.34;100.00
64243;BME280;50573;51.512;5.386;2023-04-28T21:18:48;77768.97;;;12.25;100.00
64243;BME280;50573;51.512;5.386;2023-04-28T21:28:50;77753.94;;;12.09;100.00
64243;BME280;50573;51.512;5.386;2023-04-28T21:38:55;77729.00;;;11.90;100.00
64243;BME280;50573;51.512;5.386;2023-04-28T21:48:58;77710.28;;;11.76;100.00
64243;BME280;50573;51.512;5.386;2023-04-28T21:59:02;77707.28;;;11.71;100.00
64243;BME280;50573;51.512;5.386;2023-04-28T22:09:05;77692.41;;;11.58;100.00
64243;BME280;50573;51.512;5.386;2023-04-28T22:19:10;77705.56;;;11.69;100.00
64243;BME280;50573;51.512;5.386;2023-04-28T22:29:13;77693.13;;;11.61;100.00
64243;BME280;50573;51.512;5.386;2023-04-28T22:39:18;77685.00;;;11.51;100.00
64243;BME280;50573;51.512;5.386;2023-04-28T22:49:21;77674.88;;;11.45;100.00
64243;BME280;50573;51.512;5.386;2023-04-28T22:59:31;77663.88;;;11.33;100.00
64243;BME280;50573;51.512;5.386;2023-04-28T23:09:34;77662.72;;;11.32;100.00
64243;BME280;50573;51.512;5.386;2023-04-28T23:19:39;77644.47;;;11.15;100.00
64243;BME280;50573;51.512;5.386;2023-04-28T23:29:42;77634.91;;;11.09;100.00
64243;BME280;50573;51.512;5.386;2023-04-28T23:39:46;77631.50;;;11.06;100.00
64243;BME280;50573;51.512;5.386;2023-04-28T23:49:49;77604.53;;;10.80;100.00
64243;BME280;50573;51.512;5.386;2023-04-28T23:59:54;77570.44;;;10.53;100.00
